YPLI weather

Palmers Island/Yamba Airport
New South Wales, Australia

Public forecast

Using degrees Celsius for public forecast. Weather courtesy of forecast.io.

METAR (pilot weather report)

Closest report is Grafton Airport, 22.5 nm (41.7 km) SSW. Retrieved 2019/04/22 17:00 UTC (45 minutes ago):

YGFN 221700Z AUTO 21005KT 9999 // NCD 17/17 Q1024

TAF (pilot weather forecast)

Closest forecast is Gold Coast Airport, 77.9 nm (144.4 km) N. Retrieved 2019/04/22 12:00 UTC (6 hours ago):

TAF YBCG 221109Z 2212/2312 21008KT 9999 -SHRA FEW010 SCT020 BKN040 FM222300 12013KT 9999 SCT030 INTER 2212/2222 11015KT 2500 SHRA BKN010